createdAt,value
2018-07-07T00:00:01.011Z,13.5
2018-07-07T00:01:08.910Z,13.4
2018-07-07T00:02:16.798Z,13.4
2018-07-07T00:03:24.427Z,13.4
2018-07-07T00:04:32.032Z,13.4
2018-07-07T00:05:39.926Z,13.3
2018-07-07T00:06:47.813Z,13.3
2018-07-07T00:07:55.702Z,13.3
2018-07-07T00:09:03.592Z,13.3
2018-07-07T00:10:11.485Z,13.2
2018-07-07T00:11:19.093Z,13.2
2018-07-07T00:12:26.707Z,13.2
2018-07-07T00:13:34.617Z,13.2
2018-07-07T00:14:42.507Z,13.2
2018-07-07T00:15:50.393Z,13.2
2018-07-07T00:16:58.005Z,13.2
2018-07-07T00:18:05.890Z,13.2
2018-07-07T00:19:13.777Z,13.2
2018-07-07T00:20:21.663Z,13.2
2018-07-07T00:21:29.554Z,13.1
2018-07-07T00:22:37.444Z,13.1
2018-07-07T00:23:45.326Z,13.1
2018-07-07T00:24:53.216Z,13.1
2018-07-07T00:26:01.101Z,13.1
2018-07-07T00:27:09.056Z,13
2018-07-07T00:28:16.968Z,13
2018-07-07T00:29:24.884Z,13
2018-07-07T00:30:32.770Z,13
2018-07-07T00:31:40.394Z,13
2018-07-07T00:32:48.283Z,13
2018-07-07T00:33:55.891Z,13
2018-07-07T00:35:03.789Z,13
2018-07-07T00:36:11.675Z,12.9
2018-07-07T00:37:19.581Z,12.9
2018-07-07T00:38:27.473Z,12.9
2018-07-07T00:39:35.376Z,12.9
2018-07-07T00:40:43.261Z,12.8
2018-07-07T00:41:51.149Z,12.8
2018-07-07T00:42:59.034Z,12.8
2018-07-07T00:44:06.938Z,12.8
2018-07-07T00:45:14.817Z,12.8
2018-07-07T00:46:22.714Z,12.8
2018-07-07T00:47:30.599Z,12.8
2018-07-07T00:48:38.489Z,12.8
2018-07-07T00:49:46.380Z,12.8
2018-07-07T00:50:53.997Z,12.8
2018-07-07T00:52:01.889Z,12.8
2018-07-07T00:53:09.939Z,12.8
2018-07-07T00:54:17.884Z,12.7
2018-07-07T00:55:25.797Z,12.7
2018-07-07T00:56:33.701Z,12.7
2018-07-07T00:57:41.590Z,12.7
2018-07-07T00:58:49.482Z,12.7
2018-07-07T00:59:57.378Z,12.7
2018-07-07T01:01:05.292Z,12.6
2018-07-07T01:02:13.182Z,12.6
2018-07-07T01:03:21.075Z,12.6
2018-07-07T01:04:28.965Z,12.5
2018-07-07T01:05:36.850Z,12.5
2018-07-07T01:06:44.733Z,12.5
2018-07-07T01:07:52.625Z,12.5
2018-07-07T01:09:00.512Z,12.5
2018-07-07T01:10:08.397Z,12.4
2018-07-07T01:11:16.284Z,12.4
2018-07-07T01:12:24.174Z,12.4
2018-07-07T01:13:32.065Z,12.3
2018-07-07T01:14:39.946Z,12.3
2018-07-07T01:15:48.071Z,12.3
2018-07-07T01:16:56.061Z,12.3
2018-07-07T01:18:03.961Z,12.3
2018-07-07T01:19:11.848Z,12.3
2018-07-07T01:20:19.747Z,12.3
2018-07-07T01:21:27.632Z,12.3
2018-07-07T01:22:35.515Z,12.3
2018-07-07T01:23:43.406Z,12.3
2018-07-07T01:24:51.026Z,12.2
2018-07-07T01:25:58.915Z,12.2
2018-07-07T01:27:06.809Z,12.2
2018-07-07T01:28:14.410Z,12.2
2018-07-07T01:29:22.470Z,12.2
2018-07-07T01:30:30.120Z,12.1
2018-07-07T01:31:38.044Z,12.1
2018-07-07T01:32:45.936Z,12.1
2018-07-07T01:33:53.825Z,12.1
2018-07-07T01:35:01.717Z,12
2018-07-07T01:36:09.605Z,12
2018-07-07T01:37:17.490Z,12
2018-07-07T01:38:25.376Z,12
2018-07-07T01:39:32.986Z,12.1
2018-07-07T01:40:40.874Z,12.1
2018-07-07T01:41:48.483Z,12
2018-07-07T01:42:56.374Z,12
2018-07-07T01:44:03.988Z,12
2018-07-07T01:45:11.869Z,12
2018-07-07T01:46:19.757Z,12
2018-07-07T01:47:27.363Z,12
2018-07-07T01:48:35.291Z,12
2018-07-07T01:49:43.247Z,12
2018-07-07T01:50:51.135Z,11.9
2018-07-07T01:51:59.041Z,11.9
2018-07-07T01:53:06.659Z,11.9
2018-07-07T01:54:14.273Z,11.9
2018-07-07T01:55:22.158Z,11.9
2018-07-07T01:56:30.044Z,11.9
2018-07-07T01:57:37.946Z,11.9
2018-07-07T01:58:45.831Z,11.9
2018-07-07T01:59:53.715Z,11.9
2018-07-07T02:01:01.819Z,11.8
2018-07-07T02:02:09.700Z,11.8
2018-07-07T02:03:17.590Z,11.8
2018-07-07T02:04:25.246Z,11.8
2018-07-07T02:05:33.134Z,11.8
2018-07-07T02:06:41.041Z,11.8
2018-07-07T02:07:48.927Z,11.8
2018-07-07T02:08:56.817Z,11.8
2018-07-07T02:10:04.713Z,11.8
2018-07-07T02:11:12.611Z,11.8
2018-07-07T02:12:20.492Z,11.8
2018-07-07T02:13:28.112Z,11.8
2018-07-07T02:14:36.000Z,11.8
2018-07-07T02:15:43.885Z,11.8
2018-07-07T02:16:51.770Z,11.8
2018-07-07T02:17:59.379Z,11.8
2018-07-07T02:19:07.265Z,11.7
2018-07-07T02:20:15.151Z,11.7
2018-07-07T02:21:23.036Z,11.7
2018-07-07T02:22:30.644Z,11.7
2018-07-07T02:23:38.527Z,11.6
2018-07-07T02:24:46.168Z,11.6
2018-07-07T02:25:54.048Z,11.6
2018-07-07T02:27:01.952Z,11.6
2018-07-07T02:28:09.830Z,11.6
2018-07-07T02:29:17.710Z,11.6
2018-07-07T02:30:25.598Z,11.6
2018-07-07T02:31:33.205Z,11.6
2018-07-07T02:32:40.807Z,11.6
2018-07-07T02:33:48.693Z,11.6
2018-07-07T02:34:56.578Z,11.6
2018-07-07T02:36:04.461Z,11.6
2018-07-07T02:37:12.345Z,11.6
2018-07-07T02:38:20.274Z,11.6
2018-07-07T02:39:27.884Z,11.6
2018-07-07T02:40:35.789Z,11.6
2018-07-07T02:41:43.397Z,11.6
2018-07-07T02:42:51.282Z,11.6
2018-07-07T02:43:59.166Z,11.6
2018-07-07T02:45:07.056Z,11.7
2018-07-07T02:46:15.040Z,11.7
2018-07-07T02:47:22.724Z,11.7
2018-07-07T02:48:30.612Z,11.7
2018-07-07T02:49:53.152Z,11.7
2018-07-07T02:51:01.044Z,11.7
2018-07-07T02:52:08.928Z,11.7
2018-07-07T02:53:16.834Z,11.7
2018-07-07T02:54:24.715Z,11.7
2018-07-07T02:55:32.620Z,11.7
2018-07-07T02:56:40.235Z,11.8
2018-07-07T02:57:48.123Z,11.7
2018-07-07T02:58:56.035Z,11.8
2018-07-07T03:00:03.910Z,11.8
2018-07-07T03:01:11.792Z,11.9
2018-07-07T03:02:19.679Z,11.9
2018-07-07T03:03:27.817Z,11.8
2018-07-07T03:04:35.706Z,11.9
2018-07-07T03:05:43.587Z,11.9
2018-07-07T03:06:51.213Z,11.9
2018-07-07T03:07:59.107Z,11.9
2018-07-07T03:09:07.002Z,11.9
2018-07-07T03:10:14.894Z,11.9
2018-07-07T03:11:22.790Z,11.9
2018-07-07T03:12:30.411Z,11.9
2018-07-07T03:13:38.290Z,12
2018-07-07T03:14:46.176Z,11.9
2018-07-07T03:15:54.063Z,11.9
2018-07-07T03:17:02.023Z,11.9
2018-07-07T03:18:09.906Z,11.9
2018-07-07T03:19:17.794Z,11.9
2018-07-07T03:20:25.681Z,11.9
2018-07-07T03:21:33.571Z,12
2018-07-07T03:22:41.459Z,12
2018-07-07T03:23:49.347Z,12
2018-07-07T03:24:57.270Z,12
2018-07-07T03:26:04.885Z,12.1
2018-07-07T03:27:12.770Z,12.1
2018-07-07T03:28:20.665Z,12.1
2018-07-07T03:29:28.566Z,12.1
2018-07-07T03:30:36.438Z,12.1
2018-07-07T03:31:44.325Z,12.2
2018-07-07T03:32:52.229Z,12.2
2018-07-07T03:34:00.116Z,12.2
2018-07-07T03:35:07.999Z,12.2
2018-07-07T03:36:15.610Z,12.2
2018-07-07T03:37:23.494Z,12.2
2018-07-07T03:38:31.126Z,12.3
2018-07-07T03:39:38.999Z,12.3
2018-07-07T03:40:46.883Z,12.3
2018-07-07T03:41:54.770Z,12.3
2018-07-07T03:43:02.658Z,12.3
2018-07-07T03:44:10.274Z,12.4
2018-07-07T03:45:18.159Z,12.3
2018-07-07T03:46:26.065Z,12.4
2018-07-07T03:47:34.002Z,12.4
2018-07-07T03:48:41.901Z,12.4
2018-07-07T03:49:49.518Z,12.4
2018-07-07T03:50:57.402Z,12.4
2018-07-07T03:52:05.291Z,12.5
2018-07-07T03:53:12.911Z,12.5
2018-07-07T03:54:20.801Z,12.6
2018-07-07T03:55:28.414Z,12.6
2018-07-07T03:56:36.297Z,12.6
2018-07-07T03:57:44.237Z,12.6
2018-07-07T03:58:51.959Z,12.7
2018-07-07T03:59:59.992Z,12.7
2018-07-07T04:01:07.305Z,12.7
2018-07-07T04:02:15.191Z,12.7
2018-07-07T04:03:23.082Z,12.7
2018-07-07T04:04:30.965Z,12.7
2018-07-07T04:05:38.574Z,12.7
2018-07-07T04:06:46.464Z,12.7
2018-07-07T04:07:54.348Z,12.6
2018-07-07T04:09:02.238Z,12.6
2018-07-07T04:10:10.160Z,12.6
2018-07-07T04:11:18.048Z,12.7
2018-07-07T04:12:25.949Z,12.7
2018-07-07T04:13:33.841Z,12.7
2018-07-07T04:14:41.450Z,12.7
2018-07-07T04:15:49.345Z,12.8
2018-07-07T04:16:57.244Z,12.8
2018-07-07T04:18:05.122Z,12.8
2018-07-07T04:19:12.727Z,12.9
2018-07-07T04:20:20.612Z,12.9
2018-07-07T04:21:28.496Z,13
2018-07-07T04:22:36.121Z,13.1
2018-07-07T04:23:44.007Z,13.1
2018-07-07T04:24:51.891Z,13.2
2018-07-07T04:25:59.780Z,13.3
2018-07-07T04:27:07.672Z,13.4
2018-07-07T04:28:15.558Z,13.4
2018-07-07T04:29:23.452Z,13.5
2018-07-07T04:30:31.437Z,13.5
2018-07-07T04:31:39.361Z,13.6
2018-07-07T04:32:46.969Z,13.7
2018-07-07T04:33:54.857Z,13.8
2018-07-07T04:35:02.499Z,13.9
2018-07-07T04:36:10.387Z,13.9
2018-07-07T04:37:18.272Z,13.9
2018-07-07T04:38:26.170Z,14
2018-07-07T04:39:34.070Z,14
2018-07-07T04:40:41.959Z,14.1
2018-07-07T04:41:49.851Z,14.1
2018-07-07T04:42:57.744Z,14.1
2018-07-07T04:44:05.646Z,14.2
2018-07-07T04:45:13.261Z,14.2
2018-07-07T04:46:21.148Z,14.3
2018-07-07T04:47:29.034Z,14.3
2018-07-07T04:48:36.647Z,14.4
2018-07-07T04:49:44.530Z,14.5
2018-07-07T04:50:52.424Z,14.5
2018-07-07T04:52:00.314Z,14.5
2018-07-07T04:53:08.204Z,14.5
2018-07-07T04:54:16.097Z,14.6
2018-07-07T04:55:23.990Z,14.5
2018-07-07T04:56:31.603Z,14.5
2018-07-07T04:57:39.227Z,14.5
2018-07-07T04:58:46.841Z,14.5
2018-07-07T04:59:54.449Z,14.5
2018-07-07T05:01:02.368Z,14.5
2018-07-07T05:02:10.256Z,14.6
2018-07-07T05:03:18.377Z,14.6
2018-07-07T05:04:26.321Z,14.6
2018-07-07T05:05:34.459Z,14.7
2018-07-07T05:06:42.351Z,14.8
2018-07-07T05:07:50.275Z,14.9
2018-07-07T05:08:58.165Z,15
2018-07-07T05:10:06.065Z,15
2018-07-07T05:11:13.958Z,15.1
2018-07-07T05:12:21.842Z,15.2
2018-07-07T05:13:29.454Z,15.2
2018-07-07T05:14:37.341Z,15.3
2018-07-07T05:15:44.956Z,15.4
2018-07-07T05:16:52.845Z,15.5
2018-07-07T05:18:00.735Z,15.6
2018-07-07T05:19:08.641Z,15.7
2018-07-07T05:20:16.529Z,15.8
2018-07-07T05:21:24.418Z,15.9
2018-07-07T05:22:32.365Z,16
2018-07-07T05:23:40.271Z,16.1
2018-07-07T05:24:48.152Z,16.2
2018-07-07T05:25:56.038Z,16.4
2018-07-07T05:27:03.926Z,16.5
2018-07-07T05:28:11.812Z,16.6
2018-07-07T05:29:19.725Z,16.7
2018-07-07T05:30:27.610Z,16.9
2018-07-07T05:31:35.497Z,17
2018-07-07T05:32:43.387Z,17
2018-07-07T05:33:51.282Z,16.9
2018-07-07T05:34:59.167Z,16.9
2018-07-07T05:36:07.061Z,17
2018-07-07T05:37:14.709Z,17.1
2018-07-07T05:38:22.440Z,17.2
2018-07-07T05:39:30.054Z,17.3
2018-07-07T05:40:37.945Z,17.4
2018-07-07T05:41:45.839Z,17.5
2018-07-07T05:42:53.717Z,17.7
2018-07-07T05:44:01.615Z,17.9
2018-07-07T05:45:09.230Z,17.9
2018-07-07T05:46:17.122Z,17.9
2018-07-07T05:47:25.012Z,18
2018-07-07T05:48:32.941Z,18.2
2018-07-07T05:49:40.831Z,18.3
2018-07-07T05:50:48.726Z,18.4
2018-07-07T05:51:56.627Z,18.5
2018-07-07T05:53:04.534Z,18.5
2018-07-07T05:54:12.431Z,18.5
2018-07-07T05:55:20.321Z,18.5
2018-07-07T05:56:27.935Z,18.7
2018-07-07T05:57:35.820Z,18.8
2018-07-07T05:58:43.712Z,19
2018-07-07T05:59:51.604Z,19.2
2018-07-07T06:00:59.492Z,19.2
2018-07-07T06:02:07.402Z,19.2
2018-07-07T06:03:15.289Z,19.4
2018-07-07T06:04:22.910Z,19.5
2018-07-07T06:05:30.523Z,19.7
2018-07-07T06:06:38.410Z,19.8
2018-07-07T06:07:46.028Z,19.9
2018-07-07T06:08:53.647Z,19.9
2018-07-07T06:10:01.540Z,19.8
2018-07-07T06:11:09.428Z,19.8
2018-07-07T06:12:17.046Z,19.8
2018-07-07T06:13:24.944Z,19.9
2018-07-07T06:14:33.012Z,20
2018-07-07T06:15:41.120Z,20.1
2018-07-07T06:16:49.017Z,20
2018-07-07T06:17:56.909Z,20.2
2018-07-07T06:19:04.803Z,20.3
2018-07-07T06:20:12.715Z,20.5
2018-07-07T06:21:20.916Z,20.5
2018-07-07T06:22:28.810Z,20.6
2018-07-07T06:23:36.708Z,20.7
2018-07-07T06:24:44.603Z,20.9
2018-07-07T06:25:52.546Z,21.2
2018-07-07T06:27:00.431Z,21.3
2018-07-07T06:28:08.060Z,21.4
2018-07-07T06:29:15.952Z,21.5
2018-07-07T06:30:23.843Z,21.5
2018-07-07T06:31:31.732Z,21.5
2018-07-07T06:32:39.621Z,21.3
2018-07-07T06:33:47.277Z,21.3
2018-07-07T06:34:55.167Z,21.3
2018-07-07T06:36:03.066Z,21.5
2018-07-07T06:37:10.997Z,21.5
2018-07-07T06:38:18.611Z,21.6
2018-07-07T06:39:26.499Z,21.7
2018-07-07T06:40:34.385Z,21.8
2018-07-07T06:41:42.289Z,22.1
2018-07-07T06:42:50.178Z,22.3
2018-07-07T06:43:57.856Z,22.3
2018-07-07T06:45:05.750Z,22.2
2018-07-07T06:46:13.640Z,22
2018-07-07T06:47:21.526Z,22
2018-07-07T06:48:29.416Z,22.2
2018-07-07T06:49:37.318Z,22.4
2018-07-07T06:50:44.936Z,22.4
2018-07-07T06:51:52.844Z,22.4
2018-07-07T06:53:00.454Z,22.5
2018-07-07T06:54:08.436Z,22.5
2018-07-07T06:55:16.355Z,22.6
2018-07-07T06:56:24.245Z,22.8
2018-07-07T06:57:32.143Z,22.9
2018-07-07T06:58:39.759Z,23.2
2018-07-07T06:59:47.701Z,23.3
2018-07-07T07:00:55.654Z,23.4
2018-07-07T07:02:03.555Z,23.3
2018-07-07T07:03:11.449Z,23.4
2018-07-07T07:04:19.331Z,23.1
2018-07-07T07:05:26.945Z,22.9
2018-07-07T07:06:35.052Z,23.1
2018-07-07T07:07:43.240Z,23.2
2018-07-07T07:08:50.854Z,23.3
2018-07-07T07:09:58.474Z,23.2
2018-07-07T07:11:06.386Z,23.5
2018-07-07T07:12:14.277Z,23.6
2018-07-07T07:13:22.209Z,23.4
2018-07-07T07:14:30.106Z,23.6
2018-07-07T07:15:38.017Z,23.7
2018-07-07T07:16:45.914Z,23.9
2018-07-07T07:17:53.824Z,24
2018-07-07T07:19:01.717Z,23.8
2018-07-07T07:20:09.609Z,23.9
2018-07-07T07:21:17.511Z,23.9
2018-07-07T07:22:25.411Z,23.6
2018-07-07T07:23:33.319Z,23.4
2018-07-07T07:24:41.214Z,23.3
2018-07-07T07:25:49.110Z,23.5
2018-07-07T07:26:57.003Z,23.8
2018-07-07T07:28:04.619Z,23.8
2018-07-07T07:29:12.515Z,23.9
2018-07-07T07:30:20.404Z,24
2018-07-07T07:31:28.299Z,24.2
2018-07-07T07:32:36.199Z,24.3
2018-07-07T07:33:43.822Z,24.5
2018-07-07T07:34:51.719Z,24.6
2018-07-07T07:35:59.617Z,24.8
2018-07-07T07:37:07.234Z,24.7
2018-07-07T07:38:15.123Z,24.2
2018-07-07T07:39:23.024Z,24.2
2018-07-07T07:40:30.915Z,24.2
2018-07-07T07:41:38.809Z,24.5
2018-07-07T07:42:46.696Z,24.7
2018-07-07T07:43:54.591Z,24.8
2018-07-07T07:45:02.645Z,24.7
2018-07-07T07:46:09.992Z,24.9
2018-07-07T07:47:17.608Z,25.2
2018-07-07T07:48:25.503Z,25.4
2018-07-07T07:49:33.400Z,25.2
2018-07-07T07:50:40.964Z,25.4
2018-07-07T07:51:48.857Z,25.7
2018-07-07T07:52:56.754Z,25.8
2018-07-07T07:54:04.375Z,25.9
2018-07-07T07:55:12.271Z,25.9
2018-07-07T07:56:20.165Z,26
2018-07-07T07:57:28.075Z,25.7
2018-07-07T07:58:36.360Z,25.5
2018-07-07T07:59:44.268Z,25.5
2018-07-07T08:00:51.893Z,25.4
2018-07-07T08:02:14.454Z,25.6
2018-07-07T08:03:22.350Z,25.3
2018-07-07T08:04:30.247Z,25.3
2018-07-07T08:05:38.143Z,25.5
2018-07-07T08:06:45.774Z,25.7
2018-07-07T08:07:53.675Z,25.9
2018-07-07T08:09:01.567Z,25.8
2018-07-07T08:10:09.467Z,26
2018-07-07T08:11:17.362Z,26.1
2018-07-07T08:12:24.984Z,26.1
2018-07-07T08:13:32.876Z,26
2018-07-07T08:14:40.771Z,25.7
2018-07-07T08:15:48.665Z,25.8
2018-07-07T08:16:56.562Z,26
2018-07-07T08:18:04.450Z,26
2018-07-07T08:19:12.346Z,25.9
2018-07-07T08:20:20.248Z,25.6
2018-07-07T08:21:28.159Z,25.8
2018-07-07T08:22:36.203Z,26.1
2018-07-07T08:23:44.260Z,26.3
2018-07-07T08:24:52.155Z,26.5
2018-07-07T08:26:00.054Z,26.5
2018-07-07T08:27:07.952Z,26.3
2018-07-07T08:28:15.843Z,25.7
2018-07-07T08:29:23.461Z,25.8
2018-07-07T08:30:31.369Z,26.2
2018-07-07T08:31:39.271Z,26.2
2018-07-07T08:32:47.167Z,26.2
2018-07-07T08:33:54.804Z,26.5
2018-07-07T08:35:02.700Z,26.6
2018-07-07T08:36:10.600Z,26.8
2018-07-07T08:37:18.499Z,27
2018-07-07T08:38:26.121Z,27.2
2018-07-07T08:39:33.750Z,27.6
2018-07-07T08:40:56.304Z,27.6
2018-07-07T08:42:04.459Z,27.3
2018-07-07T08:43:12.425Z,27.5
2018-07-07T08:44:20.044Z,27.3
2018-07-07T08:45:27.941Z,27.4
2018-07-07T08:46:35.558Z,27.3
2018-07-07T08:47:43.191Z,27.2
2018-07-07T08:48:51.087Z,27.6
2018-07-07T08:49:58.984Z,28.1
2018-07-07T08:51:06.885Z,28.1
2018-07-07T08:52:14.791Z,28.2
2018-07-07T08:53:22.417Z,28
2018-07-07T08:54:30.323Z,27.8
2018-07-07T08:55:38.417Z,27.9
2018-07-07T08:56:46.049Z,28
2018-07-07T08:57:53.946Z,27.9
2018-07-07T08:59:01.847Z,28
2018-07-07T09:00:09.743Z,27.9
2018-07-07T09:01:17.362Z,28.1
2018-07-07T09:02:24.996Z,28
2018-07-07T09:03:32.895Z,28.1
2018-07-07T09:04:40.794Z,28.2
2018-07-07T09:05:48.412Z,28.1
2018-07-07T09:06:56.307Z,28.4
2018-07-07T09:08:04.200Z,28.4
2018-07-07T09:09:12.113Z,28.5
2018-07-07T09:10:20.010Z,29
2018-07-07T09:11:27.967Z,29.1
2018-07-07T09:12:35.878Z,28.9
2018-07-07T09:13:43.781Z,28.9
2018-07-07T09:14:51.677Z,28.9
2018-07-07T09:15:59.306Z,28.8
2018-07-07T09:17:06.933Z,29
2018-07-07T09:18:14.826Z,29
2018-07-07T09:19:22.739Z,28.4
2018-07-07T09:20:30.326Z,28.2
2018-07-07T09:21:38.230Z,28
2018-07-07T09:22:46.130Z,28.1
2018-07-07T09:23:54.022Z,27.9
2018-07-07T09:25:01.642Z,27.8
2018-07-07T09:26:08.982Z,27.6
2018-07-07T09:27:16.877Z,27.7
2018-07-07T09:28:24.794Z,27.3
2018-07-07T09:29:32.735Z,27.4
2018-07-07T09:30:40.653Z,27.6
2018-07-07T09:31:48.551Z,28.1
2018-07-07T09:32:56.463Z,28.5
2018-07-07T09:34:04.368Z,28.8
2018-07-07T09:35:12.271Z,28.7
2018-07-07T09:36:19.899Z,29
2018-07-07T09:37:27.787Z,28.3
2018-07-07T09:38:35.694Z,27.7
2018-07-07T09:39:43.582Z,27.4
2018-07-07T09:40:51.472Z,26.8
2018-07-07T09:41:59.095Z,26.7
2018-07-07T09:43:06.996Z,26.9
2018-07-07T09:44:14.910Z,27.2
2018-07-07T09:45:22.801Z,27.3
2018-07-07T09:46:30.708Z,27.7
2018-07-07T09:47:38.331Z,27.7
2018-07-07T09:48:46.226Z,27.4
2018-07-07T09:50:08.816Z,27.5
2018-07-07T09:51:16.713Z,27.7
2018-07-07T09:52:24.620Z,27.7
2018-07-07T09:53:32.244Z,27.7
2018-07-07T09:54:40.363Z,28.3
2018-07-07T09:55:48.534Z,28.6
2018-07-07T09:56:56.153Z,28.9
2018-07-07T09:58:04.049Z,29.2
2018-07-07T09:59:11.952Z,29.3
2018-07-07T10:00:19.846Z,28.9
2018-07-07T10:01:27.473Z,28.7
2018-07-07T10:02:35.366Z,28.9
2018-07-07T10:03:43.271Z,29.2
2018-07-07T10:04:51.172Z,29.5
2018-07-07T10:05:59.067Z,29.3
2018-07-07T10:07:06.965Z,29.2
2018-07-07T10:08:14.864Z,29.3
2018-07-07T10:09:22.496Z,29
2018-07-07T10:10:30.119Z,28.5
2018-07-07T10:11:38.021Z,28.4
2018-07-07T10:12:45.640Z,28.2
2018-07-07T10:13:53.545Z,28.1
2018-07-07T10:15:01.435Z,28.1
2018-07-07T10:16:09.072Z,28.1
2018-07-07T10:17:16.976Z,27.9
2018-07-07T10:18:24.880Z,27.8
2018-07-07T10:19:32.504Z,27.5
2018-07-07T10:20:40.461Z,28
2018-07-07T10:21:48.201Z,28.3
2018-07-07T10:22:55.844Z,28.4
2018-07-07T10:24:03.745Z,28.4
2018-07-07T10:25:11.873Z,28.7
2018-07-07T10:26:19.652Z,28.9
2018-07-07T10:27:27.753Z,28.1
2018-07-07T10:28:35.655Z,28.3
2018-07-07T10:29:43.559Z,28.3
2018-07-07T10:30:51.464Z,28.4
2018-07-07T10:31:59.094Z,28.3
2018-07-07T10:33:06.991Z,28.2
2018-07-07T10:34:14.881Z,27.9
2018-07-07T10:35:22.777Z,27.8
2018-07-07T10:36:30.678Z,27.6
2018-07-07T10:37:38.593Z,27.9
2018-07-07T10:38:46.756Z,28.4
2018-07-07T10:39:54.652Z,28.6
2018-07-07T10:41:02.548Z,28.6
2018-07-07T10:42:10.466Z,28.6
2018-07-07T10:43:18.405Z,29
2018-07-07T10:44:27.250Z,29.3
2018-07-07T10:45:35.794Z,29.3
2018-07-07T10:46:44.015Z,28.8
2018-07-07T10:47:51.939Z,28.7
2018-07-07T10:49:00.072Z,29
2018-07-07T10:50:08.432Z,29.4
2018-07-07T10:51:16.327Z,29.7
2018-07-07T10:52:24.230Z,29.4
2018-07-07T10:53:31.846Z,29
2018-07-07T10:54:39.739Z,28.9
2018-07-07T10:55:47.370Z,28.5
2018-07-07T10:56:55.265Z,28.4
2018-07-07T10:58:03.157Z,28.8
2018-07-07T10:59:11.057Z,29.1
2018-07-07T11:00:18.952Z,29.5
2018-07-07T11:01:26.850Z,29.6
2018-07-07T11:02:34.864Z,29.5
2018-07-07T11:03:42.868Z,29.3
2018-07-07T11:04:50.759Z,29.4
2018-07-07T11:05:58.647Z,29.3
2018-07-07T11:07:06.546Z,29.5
2018-07-07T11:08:14.467Z,29.7
2018-07-07T11:09:22.383Z,29.8
2018-07-07T11:10:30.289Z,29.5
2018-07-07T11:11:38.212Z,29.5
2018-07-07T11:12:46.232Z,29.1
2018-07-07T11:13:54.125Z,29.1
2018-07-07T11:15:02.023Z,29.2
2018-07-07T11:16:09.390Z,29.8
2018-07-07T11:17:17.011Z,29.9
2018-07-07T11:18:24.909Z,30.3
2018-07-07T11:19:32.814Z,30.9
2018-07-07T11:20:40.709Z,31.5
2018-07-07T11:21:48.610Z,31.8
2018-07-07T11:22:56.525Z,31.3
2018-07-07T11:24:04.841Z,30.8
2018-07-07T11:25:12.465Z,30.7
2018-07-07T11:26:20.368Z,30.2
2018-07-07T11:27:28.262Z,29.6
2018-07-07T11:28:35.889Z,29.5
2018-07-07T11:29:44.223Z,29.6
2018-07-07T11:30:52.170Z,29.6
2018-07-07T11:32:00.078Z,29.5
2018-07-07T11:33:07.979Z,29.7
2018-07-07T11:34:15.877Z,30.1
2018-07-07T11:35:23.805Z,30.2
2018-07-07T11:36:31.964Z,29.9
2018-07-07T11:37:40.306Z,29.9
2018-07-07T11:38:48.222Z,29.9
2018-07-07T11:39:56.138Z,29.7
2018-07-07T11:41:03.755Z,29.2
2018-07-07T11:42:11.911Z,28.3
2018-07-07T11:43:19.878Z,28.9
2018-07-07T11:44:28.014Z,29.4
2018-07-07T11:45:35.913Z,29.7
2018-07-07T11:46:43.826Z,29.9
2018-07-07T11:47:51.459Z,30.2
2018-07-07T11:48:59.086Z,30.7
2018-07-07T11:50:06.792Z,30.8
2018-07-07T11:51:14.778Z,30.3
2018-07-07T11:52:22.700Z,29.5
2018-07-07T11:53:30.626Z,29.4
2018-07-07T11:54:38.525Z,29.4
2018-07-07T11:55:46.435Z,29.8
2018-07-07T11:56:54.341Z,29.9
2018-07-07T11:58:02.484Z,30.2
2018-07-07T11:59:10.123Z,30.6
2018-07-07T12:00:18.263Z,31
2018-07-07T12:01:25.907Z,30.8
2018-07-07T12:02:33.522Z,31.2
2018-07-07T12:03:41.414Z,31.2
2018-07-07T12:04:49.538Z,31
2018-07-07T12:05:57.697Z,31.1
2018-07-07T12:07:05.598Z,31.2
2018-07-07T12:08:14.920Z,31.2
2018-07-07T12:09:22.883Z,31.6
2018-07-07T12:10:30.778Z,32
2018-07-07T12:11:38.864Z,31.6
2018-07-07T12:12:46.856Z,31.6
2018-07-07T12:13:54.755Z,31.4
2018-07-07T12:15:02.685Z,31.8
2018-07-07T12:16:10.324Z,32.3
2018-07-07T12:17:18.336Z,32.6
2018-07-07T12:18:26.313Z,32.3
2018-07-07T12:19:34.446Z,31.9
2018-07-07T12:20:42.078Z,31.3
2018-07-07T12:21:49.973Z,30.8
2018-07-07T12:22:57.878Z,30.6
2018-07-07T12:24:06.007Z,30.7
2018-07-07T12:25:13.634Z,31
2018-07-07T12:26:21.474Z,31
2018-07-07T12:27:29.102Z,31.3
2018-07-07T12:28:37.023Z,31.6
2018-07-07T12:29:44.929Z,31.6
2018-07-07T12:30:52.839Z,31.3
2018-07-07T12:32:00.733Z,31
2018-07-07T12:33:08.641Z,31.1
2018-07-07T12:34:16.754Z,31.6
2018-07-07T12:35:25.279Z,31.8
2018-07-07T12:36:32.904Z,32.2
2018-07-07T12:37:41.142Z,32.2
2018-07-07T12:38:49.043Z,31.6
2018-07-07T12:39:56.944Z,31.7
2018-07-07T12:41:04.852Z,31.8
2018-07-07T12:42:14.051Z,31.9
2018-07-07T12:43:21.952Z,31.4
2018-07-07T12:44:29.588Z,31.6
2018-07-07T12:45:37.487Z,31.3
2018-07-07T12:46:45.382Z,30.8
2018-07-07T12:47:53.278Z,30.9
2018-07-07T12:49:01.174Z,31.3
2018-07-07T12:50:09.071Z,31.5
2018-07-07T12:51:16.976Z,31.4
2018-07-07T12:52:24.870Z,31.3
2018-07-07T12:53:32.705Z,31.4
2018-07-07T12:54:40.605Z,31.1
2018-07-07T12:55:48.506Z,31.3
2018-07-07T12:56:56.408Z,31.3
2018-07-07T12:58:04.306Z,31.7
2018-07-07T12:59:12.216Z,32.2
2018-07-07T13:00:20.118Z,32.6
2018-07-07T13:01:28.030Z,32.3
2018-07-07T13:02:35.922Z,31.7
2018-07-07T13:03:43.541Z,31.5
2018-07-07T13:04:51.441Z,31.5
2018-07-07T13:05:59.382Z,31.1
2018-07-07T13:07:07.475Z,31
2018-07-07T13:08:15.289Z,30.8
2018-07-07T13:09:23.194Z,30.6
2018-07-07T13:10:31.092Z,31
2018-07-07T13:11:39.002Z,31
2018-07-07T13:12:46.901Z,31
2018-07-07T13:13:54.800Z,31.3
2018-07-07T13:15:02.752Z,31.1
2018-07-07T13:16:10.938Z,30.9
2018-07-07T13:17:19.053Z,30.8
2018-07-07T13:18:26.948Z,30.8
2018-07-07T13:19:34.844Z,30.8
2018-07-07T13:20:42.854Z,30.8
2018-07-07T13:21:50.879Z,30.7
2018-07-07T13:22:58.504Z,31.1
2018-07-07T13:24:06.403Z,31.1
2018-07-07T13:25:14.298Z,31.3
2018-07-07T13:26:21.943Z,31.6
2018-07-07T13:27:29.976Z,31.7
2018-07-07T13:28:37.871Z,31.5
2018-07-07T13:29:45.777Z,31.7
2018-07-07T13:30:53.678Z,31.5
2018-07-07T13:32:01.325Z,31.3
2018-07-07T13:33:09.432Z,31.4
2018-07-07T13:34:17.656Z,31.6
2018-07-07T13:35:27.233Z,31.8
2018-07-07T13:36:35.142Z,32.2
2018-07-07T13:37:42.485Z,32.2
2018-07-07T13:38:50.519Z,32
2018-07-07T13:39:57.903Z,32
2018-07-07T13:41:05.803Z,31.7
2018-07-07T13:42:13.458Z,31.6
2018-07-07T13:44:35.258Z,31.5
2018-07-07T13:45:43.160Z,31.6
2018-07-07T13:46:51.302Z,31.8
2018-07-07T13:47:59.198Z,32.1
2018-07-07T13:49:07.094Z,32.3
2018-07-07T13:50:14.996Z,32.4
2018-07-07T13:51:22.889Z,32.3
2018-07-07T13:52:30.513Z,32.4
2018-07-07T13:53:38.141Z,32.2
2018-07-07T13:54:46.040Z,31.8
2018-07-07T13:55:53.937Z,31.8
2018-07-07T13:57:01.882Z,31.9
2018-07-07T13:58:09.783Z,32.1
2018-07-07T13:59:17.680Z,32
2018-07-07T14:00:25.575Z,31.7
2018-07-07T14:01:33.470Z,31.6
2018-07-07T14:02:41.364Z,31.7
2018-07-07T14:03:49.265Z,31.5
2018-07-07T14:04:57.196Z,31.7
2018-07-07T14:06:05.097Z,31.9
2018-07-07T14:07:12.997Z,32.1
2018-07-07T14:08:20.620Z,32
2018-07-07T14:09:28.613Z,31.6
2018-07-07T14:10:36.570Z,31.7
2018-07-07T14:11:44.472Z,32
2018-07-07T14:12:52.383Z,32.5
2018-07-07T14:14:00.002Z,32.6
2018-07-07T14:15:07.356Z,32.8
2018-07-07T14:16:15.259Z,32.9
2018-07-07T14:17:23.223Z,32.7
2018-07-07T14:18:31.336Z,32.3
2018-07-07T14:19:38.962Z,32.2
2018-07-07T14:20:46.861Z,32.2
2018-07-07T14:21:54.489Z,32.4
2018-07-07T14:23:02.389Z,32.4
2018-07-07T14:24:10.283Z,32.5
2018-07-07T14:25:18.192Z,32.5
2018-07-07T14:26:26.091Z,32.2
2018-07-07T14:27:33.991Z,32.2
2018-07-07T14:28:41.890Z,32
2018-07-07T14:29:49.244Z,31.8
2018-07-07T14:30:57.144Z,31.5
2018-07-07T14:32:05.043Z,31.6
2018-07-07T14:33:12.943Z,32
2018-07-07T14:34:20.846Z,32.4
2018-07-07T14:35:28.745Z,32.1
2018-07-07T14:36:36.649Z,32
2018-07-07T14:37:44.550Z,32.4
2018-07-07T14:38:52.446Z,32.6
2018-07-07T14:40:00.356Z,32.9
2018-07-07T14:41:08.263Z,32.5
2018-07-07T14:42:16.161Z,32.6
2018-07-07T14:43:24.065Z,32.4
2018-07-07T14:44:31.978Z,32.4
2018-07-07T14:45:39.881Z,32.6
2018-07-07T14:46:47.501Z,32.8
2018-07-07T14:47:55.405Z,33.3
2018-07-07T14:49:03.320Z,33.7
2018-07-07T14:50:11.237Z,34.1
2018-07-07T14:51:18.859Z,33.5
2018-07-07T14:52:26.791Z,33.4
2018-07-07T14:53:34.688Z,33.5
2018-07-07T14:54:42.597Z,33.8
2018-07-07T14:55:50.502Z,33.8
2018-07-07T14:56:58.396Z,33.5
2018-07-07T14:58:06.470Z,33.3
2018-07-07T14:59:14.846Z,33.3
2018-07-07T15:00:22.767Z,33.3
2018-07-07T15:01:30.674Z,33.3
2018-07-07T15:02:38.589Z,33.4
2018-07-07T15:03:46.494Z,33.6
2018-07-07T15:04:54.403Z,33.9
2018-07-07T15:06:02.312Z,33.6
2018-07-07T15:07:10.214Z,33.7
2018-07-07T15:08:18.120Z,33.8
2018-07-07T15:09:26.013Z,33.9
2018-07-07T15:10:33.910Z,33.9